Time;durP1;ratioP1;P1;durP2;ratioP2;P2;SDS_P1;SDS_P2;PMS_P1;PMS_P2;Temp;Humidity;BMP_temperature;BMP_pressure;BME280_temperature;BME280_humidity;BME280_pressure;Samples;Min_cycle;Max_cycle;Signal;HPM_P1;HPM_P2
2023/01/16 00:01:41;;;;;;;3.65;0.88;;;5.40;97.70;;;;;;5068298;28;20435;-70
2023/01/16 00:04:08;;;;;;;2.55;0.80;;;5.40;97.50;;;;;;5065437;28;20435;-69
2023/01/16 00:06:35;;;;;;;1.52;0.70;;;5.40;97.60;;;;;;5068123;28;20775;-69
2023/01/16 00:09:03;;;;;;;1.13;0.50;;;5.40;97.80;;;;;;5069595;28;20454;-71
2023/01/16 00:11:31;;;;;;;1.42;0.80;;;5.40;97.30;;;;;;5079268;28;20441;-67
2023/01/16 00:13:58;;;;;;;1.40;0.80;;;5.30;97.70;;;;;;5082780;28;20442;-68
2023/01/16 00:16:25;;;;;;;2.80;0.75;;;5.20;97.80;;;;;;5082860;28;20957;-69
2023/01/16 00:18:52;;;;;;;1.98;0.70;;;5.10;98.00;;;;;;5083656;28;20517;-68
2023/01/16 00:21:19;;;;;;;1.42;0.73;;;5.20;98.60;;;;;;5080813;28;20431;-68
2023/01/16 00:23:46;;;;;;;1.90;0.70;;;5.20;98.50;;;;;;5076170;28;20843;-68
2023/01/16 00:26:13;;;;;;;1.98;0.95;;;5.30;98.70;;;;;;5071317;28;20437;-68
2023/01/16 00:28:41;;;;;;;0.90;0.60;;;5.30;98.30;;;;;;5057837;28;20411;-69
2023/01/16 00:31:08;;;;;;;1.10;0.60;;;5.30;98.90;;;;;;5068466;28;20933;-67
2023/01/16 00:33:35;;;;;;;1.67;0.90;;;5.30;98.80;;;;;;5065935;28;20542;-70
2023/01/16 00:36:02;;;;;;;1.70;0.73;;;5.20;99.20;;;;;;5067242;28;20431;-69
2023/01/16 00:38:29;;;;;;;1.40;0.60;;;5.20;98.80;;;;;;5068404;28;20806;-69
2023/01/16 00:40:56;;;;;;;1.80;0.60;;;5.30;98.90;;;;;;5067180;28;20442;-69
2023/01/16 00:43:23;;;;;;;2.42;0.90;;;5.30;99.60;;;;;;5064860;28;20446;-70
2023/01/16 00:45:51;;;;;;;1.50;0.73;;;5.30;99.80;;;;;;5064475;28;20434;-69
2023/01/16 00:48:18;;;;;;;1.30;0.70;;;5.30;99.80;;;;;;5071103;28;20427;-68
2023/01/16 00:50:45;;;;;;;1.50;0.80;;;5.30;99.90;;;;;;5065978;28;20464;-69
2023/01/16 00:53:11;;;;;;;1.80;0.70;;;5.20;99.90;;;;;;5057545;28;20431;-69
2023/01/16 00:55:41;;;;;;;1.75;1.00;;;5.20;99.90;;;;;;5069427;28;20434;-68
2023/01/16 00:58:08;;;;;;;1.42;0.80;;;5.20;99.90;;;;;;5072877;28;20423;-69
2023/01/16 01:00:35;;;;;;;1.80;0.60;;;5.20;99.90;;;;;;5063935;28;20510;-70
2023/01/16 01:03:03;;;;;;;1.90;0.60;;;5.20;99.00;;;;;;5067656;28;20572;-70
2023/01/16 01:05:30;;;;;;;2.38;1.00;;;5.30;99.40;;;;;;5066569;28;20432;-69
2023/01/16 01:07:57;;;;;;;1.17;0.68;;;5.30;98.50;;;;;;5065468;28;20435;-69
2023/01/16 01:10:24;;;;;;;1.75;0.68;;;5.40;98.70;;;;;;5066646;28;20446;-69
2023/01/16 01:12:54;;;;;;;2.33;0.70;;;5.30;99.20;;;;;;5064602;28;20455;-70
2023/01/16 01:15:21;;;;;;;1.70;0.50;;;5.30;98.90;;;;;;5066469;28;20427;-70
2023/01/16 01:17:48;;;;;;;1.50;0.50;;;5.30;98.50;;;;;;5067682;28;20470;-69
2023/01/16 01:20:17;;;;;;;1.50;0.50;;;5.30;98.70;;;;;;5065774;28;20435;-69
2023/01/16 01:22:45;;;;;;;1.70;0.77;;;5.30;98.90;;;;;;5066229;28;20427;-70
2023/01/16 01:25:11;;;;;;;3.10;1.10;;;5.30;98.50;;;;;;5066838;28;20435;-70
2023/01/16 01:27:38;;;;;;;1.98;0.82;;;5.40;98.60;;;;;;5067608;28;20434;-69
2023/01/16 01:30:06;;;;;;;2.10;0.60;;;5.40;98.30;;;;;;5067606;28;20431;-68
2023/01/16 01:32:33;;;;;;;2.30;0.70;;;5.40;99.70;;;;;;5067410;28;20439;-70
2023/01/16 01:35:00;;;;;;;1.10;0.50;;;5.40;98.70;;;;;;5079564;28;20437;-70
2023/01/16 01:37:28;;;;;;;1.80;0.60;;;5.20;98.90;;;;;;5074990;28;20481;-70
2023/01/16 01:39:55;;;;;;;1.50;0.60;;;5.20;98.90;;;;;;5073375;28;20438;-70
2023/01/16 01:45:14;;;;;;;1.40;0.50;;;5.30;99.10;;;;;;5078217;28;20462;-69
2023/01/16 01:47:45;;;;;;;1.48;0.60;;;5.30;99.20;;;;;;5076631;28;20425;-68
2023/01/16 01:50:20;;;;;;;1.10;0.50;;;5.40;99.00;;;;;;5082545;28;20415;-70
2023/01/16 01:52:49;;;;;;;0.85;0.40;;;5.40;98.80;;;;;;5071897;28;21003;-70
2023/01/16 01:55:16;;;;;;;1.30;0.50;;;5.40;98.70;;;;;;5071712;28;20435;-68
2023/01/16 01:57:48;;;;;;;1.25;0.65;;;5.40;98.80;;;;;;5069795;28;20432;-68
2023/01/16 02:00:18;;;;;;;1.45;0.77;;;5.40;98.50;;;;;;5071700;28;20525;-68
2023/01/16 02:02:49;;;;;;;0.80;0.57;;;5.40;99.20;;;;;;5079276;28;20434;-67
2023/01/16 02:05:21;;;;;;;1.70;0.50;;;5.40;99.20;;;;;;5076209;28;20431;-70
2023/01/16 02:07:50;;;;;;;0.80;0.50;;;5.40;98.90;;;;;;5078303;28;20419;-69
2023/01/16 02:10:26;;;;;;;0.95;0.50;;;5.30;98.90;;;;;;5080318;28;20428;-70
2023/01/16 02:12:54;;;;;;;0.65;0.40;;;5.30;99.40;;;;;;5076903;28;20438;-70
2023/01/16 02:15:22;;;;;;;0.80;0.50;;;5.20;99.50;;;;;;5079459;28;20447;-68
2023/01/16 02:20:46;;;;;;;1.40;0.40;;;5.20;99.80;;;;;;5069856;28;20490;-68
2023/01/16 02:23:50;;;;;;;0.70;0.40;;;5.20;99.90;;;;;;5070675;28;20423;-68
2023/01/16 02:26:52;;;;;;;1.30;0.40;;;5.20;99.80;;;;;;5065599;28;20427;-68
2023/01/16 02:30:07;;;;;;;0.80;0.40;;;5.10;99.90;;;;;;5064212;28;20480;-67
2023/01/16 02:32:48;;;;;;;1.48;0.50;;;5.10;99.90;;;;;;5066645;28;20455;-68
2023/01/16 02:35:44;;;;;;;0.82;0.40;;;5.00;99.90;;;;;;5060289;28;20450;-67
2023/01/16 02:38:20;;;;;;;0.70;0.40;;;5.00;99.80;;;;;;5043882;28;20431;-69
2023/01/16 02:40:54;;;;;;;0.90;0.40;;;5.00;99.70;;;;;;5060891;28;20446;-68
2023/01/16 02:43:29;;;;;;;1.50;0.50;;;5.10;99.90;;;;;;5062143;28;20450;-67
2023/01/16 02:46:07;;;;;;;1.40;0.50;;;5.20;99.80;;;;;;5064772;28;20519;-68
2023/01/16 02:48:41;;;;;;;0.80;0.40;;;5.20;99.60;;;;;;5064671;28;20774;-69
2023/01/16 02:51:13;;;;;;;2.00;0.40;;;5.20;99.60;;;;;;5064040;28;20436;-70
2023/01/16 02:53:46;;;;;;;1.15;0.63;;;5.10;99.90;;;;;;5063804;28;20446;-68
2023/01/16 02:56:19;;;;;;;1.23;0.60;;;5.20;99.90;;;;;;5064232;28;20446;-69
2023/01/16 02:58:48;;;;;;;0.70;0.40;;;5.20;99.90;;;;;;5066440;28;20442;-69
2023/01/16 03:01:18;;;;;;;1.20;0.52;;;5.20;99.40;;;;;;5060587;28;20830;-69
2023/01/16 03:03:50;;;;;;;1.20;0.40;;;5.20;99.10;;;;;;5066620;28;20443;-71
2023/01/16 03:06:38;;;;;;;1.30;0.70;;;5.20;99.10;;;;;;5061233;28;20423;-69
2023/01/16 03:09:27;;;;;;;1.20;0.60;;;5.20;99.60;;;;;;5065339;28;20428;-68
2023/01/16 03:12:09;;;;;;;2.00;0.60;;;5.20;99.20;;;;;;5061685;28;20427;-70
2023/01/16 03:14:43;;;;;;;1.50;0.60;;;5.10;99.40;;;;;;5063277;28;20443;-69
2023/01/16 03:17:22;;;;;;;1.80;0.80;;;5.00;99.50;;;;;;5064088;28;20510;-70
2023/01/16 03:20:11;;;;;;;1.73;0.70;;;5.00;99.90;;;;;;5065985;28;20951;-69
2023/01/16 03:22:42;;;;;;;2.13;1.10;;;4.80;99.90;;;;;;5065662;28;20901;-69
2023/01/16 03:25:22;;;;;;;2.40;0.80;;;4.70;99.90;;;;;;5078066;28;20516;-69
2023/01/16 03:27:57;;;;;;;2.10;0.90;;;4.70;99.90;;;;;;5078940;28;20438;-67
2023/01/16 03:30:30;;;;;;;1.10;0.80;;;4.60;99.90;;;;;;5078568;28;20442;-69
2023/01/16 03:33:03;;;;;;;1.20;0.70;;;4.60;99.90;;;;;;5068690;28;21077;-70
2023/01/16 03:35:35;;;;;;;1.90;0.70;;;4.60;99.90;;;;;;5072900;28;20522;-68
2023/01/16 03:38:05;;;;;;;1.30;0.90;;;4.50;99.90;;;;;;5078093;28;20434;-68
2023/01/16 03:40:36;;;;;;;1.20;0.73;;;4.50;99.90;;;;;;5078957;28;20514;-68
2023/01/16 03:43:08;;;;;;;1.05;0.60;;;4.50;99.90;;;;;;5077631;28;20431;-69
2023/01/16 03:45:44;;;;;;;1.60;0.80;;;4.50;99.90;;;;;;5080551;28;20538;-68
2023/01/16 03:48:16;;;;;;;2.63;0.90;;;4.50;99.90;;;;;;5084314;28;20426;-68
2023/01/16 03:50:50;;;;;;;2.28;0.80;;;4.60;99.90;;;;;;5078324;28;20454;-69
2023/01/16 03:53:20;;;;;;;2.70;1.00;;;4.70;99.90;;;;;;5074373;28;20422;-67
2023/01/16 03:55:55;;;;;;;1.10;0.80;;;4.70;99.90;;;;;;5071125;28;20491;-66
2023/01/16 03:58:27;;;;;;;2.45;0.90;;;4.70;99.90;;;;;;5076324;28;20424;-68
2023/01/16 04:01:00;;;;;;;2.00;0.73;;;4.80;99.90;;;;;;5072345;28;20442;-68
2023/01/16 04:03:30;;;;;;;1.73;0.87;;;4.80;99.90;;;;;;5069879;28;20455;-67
2023/01/16 04:06:08;;;;;;;1.95;0.80;;;4.80;99.90;;;;;;5072802;28;20411;-69
2023/01/16 04:08:38;;;;;;;1.55;1.00;;;4.80;99.90;;;;;;5073434;28;20473;-68
2023/01/16 04:11:06;;;;;;;2.35;0.90;;;4.80;99.90;;;;;;5073209;28;20435;-69
2023/01/16 04:13:36;;;;;;;2.10;0.70;;;4.80;99.90;;;;;;5067898;28;20435;-67
2023/01/16 04:16:06;;;;;;;1.38;0.60;;;4.80;99.90;;;;;;5064173;28;20446;-67
2023/01/16 04:18:35;;;;;;;1.53;0.80;;;4.80;99.90;;;;;;5065608;28;20419;-66
2023/01/16 04:21:06;;;;;;;2.60;0.98;;;4.80;99.90;;;;;;5065093;28;20427;-69
2023/01/16 04:23:33;;;;;;;2.28;1.13;;;4.90;99.90;;;;;;5065388;28;21189;-69
2023/01/16 04:26:00;;;;;;;3.00;1.10;;;4.90;99.90;;;;;;5065461;28;20450;-67
2023/01/16 04:28:27;;;;;;;1.42;0.90;;;4.80;99.90;;;;;;5068872;28;20449;-67
2023/01/16 04:30:54;;;;;;;1.90;0.70;;;4.80;99.90;;;;;;5068088;28;20789;-69
2023/01/16 04:33:21;;;;;;;1.67;0.70;;;4.80;99.90;;;;;;5068106;28;20949;-69
2023/01/16 04:35:47;;;;;;;2.47;0.90;;;4.70;99.90;;;;;;5066870;28;20439;-66
2023/01/16 04:38:15;;;;;;;2.03;1.10;;;4.80;99.90;;;;;;5067606;28;20435;-69
2023/01/16 04:40:42;;;;;;;1.60;0.80;;;4.80;99.90;;;;;;5067942;28;20442;-70
2023/01/16 04:43:09;;;;;;;2.30;0.90;;;4.80;99.90;;;;;;5064392;28;20442;-69
2023/01/16 04:45:36;;;;;;;1.67;1.10;;;4.80;99.90;;;;;;5066462;28;20437;-69
2023/01/16 04:48:02;;;;;;;2.88;1.10;;;4.80;99.90;;;;;;5071288;28;20433;-69
2023/01/16 04:50:29;;;;;;;2.95;0.90;;;4.80;99.90;;;;;;5066122;28;20431;-68
2023/01/16 04:52:56;;;;;;;1.15;0.75;;;4.90;99.90;;;;;;5067208;28;20432;-68
2023/01/16 04:55:24;;;;;;;1.58;1.13;;;4.90;99.90;;;;;;5066715;28;20435;-70
2023/01/16 04:57:51;;;;;;;2.10;0.70;;;4.90;99.60;;;;;;5066564;28;20596;-67
2023/01/16 05:00:19;;;;;;;1.13;0.63;;;5.00;99.30;;;;;;5067477;28;20439;-70
2023/01/16 05:02:45;;;;;;;1.92;0.95;;;5.10;99.00;;;;;;5064068;28;20427;-69
2023/01/16 05:05:12;;;;;;;3.17;1.10;;;5.10;99.00;;;;;;5060412;28;20428;-70
2023/01/16 05:07:39;;;;;;;1.90;1.15;;;5.10;99.10;;;;;;5068934;28;20789;-69
2023/01/16 05:10:07;;;;;;;1.83;0.93;;;5.10;99.10;;;;;;5063724;28;20427;-67
2023/01/16 05:12:35;;;;;;;2.17;1.00;;;5.10;99.10;;;;;;5064724;28;20758;-68
2023/01/16 05:15:02;;;;;;;1.80;0.70;;;5.10;99.30;;;;;;5063926;28;20439;-67
2023/01/16 05:17:28;;;;;;;3.58;1.10;;;5.10;99.30;;;;;;5064475;28;20554;-68
2023/01/16 05:19:55;;;;;;;1.45;0.75;;;5.10;99.30;;;;;;5071462;28;20442;-68
2023/01/16 05:22:22;;;;;;;2.03;0.87;;;5.10;99.20;;;;;;5065961;28;20556;-68
2023/01/16 05:24:49;;;;;;;3.20;1.00;;;5.10;99.20;;;;;;5063971;28;20427;-69
2023/01/16 05:27:15;;;;;;;2.67;0.60;;;5.10;99.10;;;;;;5065489;28;20435;-69
2023/01/16 05:29:43;;;;;;;1.33;0.63;;;5.20;98.80;;;;;;5064954;28;20821;-69
2023/01/16 05:32:10;;;;;;;1.63;0.80;;;5.20;98.60;;;;;;5066292;28;20545;-70
2023/01/16 05:34:37;;;;;;;2.30;0.82;;;5.20;98.70;;;;;;5065086;28;20996;-70
2023/01/16 05:37:04;;;;;;;1.33;0.50;;;5.20;98.60;;;;;;5066076;28;20435;-68
2023/01/16 05:39:30;;;;;;;1.52;0.70;;;5.20;98.50;;;;;;5065047;28;20510;-67
2023/01/16 05:41:57;;;;;;;1.65;0.60;;;5.30;98.20;;;;;;5065932;28;20435;-67
2023/01/16 05:44:24;;;;;;;2.70;0.70;;;5.30;98.10;;;;;;5064644;28;20436;-69
2023/01/16 05:46:52;;;;;;;1.25;0.73;;;5.30;98.20;;;;;;5066723;28;20880;-68
2023/01/16 05:49:19;;;;;;;0.90;0.68;;;5.30;98.00;;;;;;5081092;28;20431;-71
2023/01/16 05:51:45;;;;;;;1.40;0.80;;;5.30;98.10;;;;;;5075943;28;20511;-69
2023/01/16 05:54:13;;;;;;;1.90;1.00;;;5.30;98.20;;;;;;5073859;28;20431;-70
2023/01/16 05:56:40;;;;;;;1.33;0.70;;;5.30;98.00;;;;;;5074969;28;20920;-71
2023/01/16 05:59:07;;;;;;;2.22;1.00;;;5.40;97.90;;;;;;5063251;28;21380;-70
2023/01/16 06:01:33;;;;;;;1.20;0.70;;;5.40;97.70;;;;;;5060971;28;20774;-69
2023/01/16 06:04:02;;;;;;;2.50;0.80;;;5.50;97.80;;;;;;5065667;28;21074;-69
2023/01/16 06:06:28;;;;;;;2.30;0.60;;;5.50;97.30;;;;;;5067031;28;20445;-69
2023/01/16 06:08:55;;;;;;;1.10;0.88;;;5.50;97.30;;;;;;5076682;28;20949;-69
2023/01/16 06:11:22;;;;;;;1.60;0.63;;;5.60;97.00;;;;;;5067167;28;20427;-68
2023/01/16 06:13:49;;;;;;;1.40;0.60;;;5.60;97.20;;;;;;5065371;28;20554;-71
2023/01/16 06:16:15;;;;;;;1.63;0.63;;;5.60;97.00;;;;;;5065909;28;20436;-68
2023/01/16 06:18:42;;;;;;;1.05;0.70;;;5.60;97.00;;;;;;5065013;28;20430;-70
2023/01/16 06:21:10;;;;;;;2.43;0.70;;;5.60;97.30;;;;;;5061095;28;20525;-69
2023/01/16 06:23:37;;;;;;;2.25;1.00;;;5.60;97.10;;;;;;5066391;28;20510;-71
2023/01/16 06:26:05;;;;;;;1.52;0.88;;;5.60;97.00;;;;;;5065856;28;20427;-69
2023/01/16 06:28:32;;;;;;;2.35;1.08;;;5.60;97.10;;;;;;5065640;28;20431;-70
2023/01/16 06:30:59;;;;;;;2.10;0.80;;;5.60;97.10;;;;;;5063843;28;20605;-70
2023/01/16 06:33:26;;;;;;;1.80;0.70;;;5.50;97.30;;;;;;5058701;28;20449;-71
2023/01/16 06:35:52;;;;;;;2.80;1.30;;;5.60;97.40;;;;;;5064486;28;20878;-70
2023/01/16 06:38:20;;;;;;;1.50;1.00;;;5.50;97.30;;;;;;5066344;28;20447;-69
2023/01/16 06:40:48;;;;;;;1.23;0.70;;;5.50;97.30;;;;;;5060725;28;20437;-71
2023/01/16 06:43:16;;;;;;;1.70;1.00;;;5.50;97.30;;;;;;5062490;28;20438;-69
2023/01/16 06:45:44;;;;;;;1.77;0.80;;;5.50;97.40;;;;;;5064753;28;20884;-71
2023/01/16 06:48:11;;;;;;;1.15;0.70;;;5.50;97.30;;;;;;5069532;28;20412;-71
2023/01/16 06:50:38;;;;;;;1.17;0.80;;;5.50;97.40;;;;;;5068530;28;20435;-71
2023/01/16 06:53:05;;;;;;;2.88;1.00;;;5.50;97.30;;;;;;5069000;28;20408;-70
2023/01/16 06:55:33;;;;;;;2.30;1.30;;;5.50;97.20;;;;;;5067470;28;20495;-70
2023/01/16 06:57:59;;;;;;;2.22;1.40;;;5.50;97.30;;;;;;5067109;28;20454;-71
2023/01/16 07:00:26;;;;;;;4.20;1.20;;;5.60;97.20;;;;;;5066209;28;20988;-70
2023/01/16 07:02:55;;;;;;;1.90;1.50;;;5.60;96.70;;;;;;5064559;28;20435;-68
2023/01/16 07:05:23;;;;;;;2.83;1.40;;;5.60;96.50;;;;;;5064762;28;20423;-68
2023/01/16 07:07:50;;;;;;;1.67;1.40;;;5.60;96.80;;;;;;5067477;28;20416;-68
2023/01/16 07:10:20;;;;;;;2.45;1.30;;;5.60;96.60;;;;;;5066189;28;20845;-68
2023/01/16 07:12:48;;;;;;;3.20;1.50;;;5.60;96.60;;;;;;5058772;28;20447;-68
2023/01/16 07:23:28;;;;;;;1.10;1.00;;;5.50;96.60;;;;;;5058134;28;20836;-67
2023/01/16 07:25:57;;;;;;;2.38;1.40;;;5.50;96.30;;;;;;5069957;28;20596;-68
2023/01/16 07:28:25;;;;;;;1.77;1.13;;;5.50;96.40;;;;;;5062126;28;20428;-67
2023/01/16 07:30:52;;;;;;;2.10;1.27;;;5.50;96.30;;;;;;5064523;28;20427;-67
2023/01/16 07:33:19;;;;;;;2.13;1.00;;;5.60;96.10;;;;;;5063835;28;20775;-69
2023/01/16 07:35:46;;;;;;;2.00;1.30;;;5.60;96.10;;;;;;5063422;28;20431;-69
2023/01/16 07:38:13;;;;;;;2.60;1.10;;;5.60;95.30;;;;;;5064063;28;20514;-70
2023/01/16 07:40:39;;;;;;;2.97;1.20;;;5.60;95.00;;;;;;5066239;28;20411;-67
2023/01/16 07:43:06;;;;;;;1.60;0.90;;;5.70;95.10;;;;;;5061824;28;20442;-70
2023/01/16 07:45:34;;;;;;;3.38;1.10;;;5.70;95.00;;;;;;5061237;28;20431;-69
2023/01/16 07:48:01;;;;;;;2.20;1.10;;;5.80;95.20;;;;;;5064070;28;20438;-69
2023/01/16 07:50:28;;;;;;;2.50;0.90;;;5.80;95.90;;;;;;5062580;28;20450;-67
2023/01/16 07:52:55;;;;;;;2.58;0.95;;;5.70;96.60;;;;;;5064283;28;20441;-67
2023/01/16 07:55:22;;;;;;;2.90;1.10;;;5.70;97.40;;;;;;5062307;28;20515;-69
2023/01/16 07:57:49;;;;;;;2.60;0.90;;;5.60;98.00;;;;;;5069188;28;20462;-68
2023/01/16 08:00:17;;;;;;;2.20;1.23;;;5.60;98.20;;;;;;5064217;28;20435;-69
2023/01/16 08:02:45;;;;;;;2.33;1.10;;;5.60;97.70;;;;;;5067102;28;20451;-69
2023/01/16 08:05:12;;;;;;;2.47;1.00;;;5.60;97.70;;;;;;5071891;28;20424;-69
2023/01/16 08:07:38;;;;;;;2.83;1.30;;;5.50;97.60;;;;;;5069938;28;20450;-69
2023/01/16 08:10:06;;;;;;;2.40;0.90;;;5.50;97.90;;;;;;5065488;28;20431;-70
2023/01/16 08:12:33;;;;;;;3.35;1.10;;;5.50;98.10;;;;;;5067918;28;20427;-70
2023/01/16 08:15:00;;;;;;;1.70;0.80;;;5.50;98.20;;;;;;5069030;28;20802;-69
2023/01/16 08:17:26;;;;;;;4.07;0.90;;;5.60;98.00;;;;;;5067408;28;20921;-69
2023/01/16 08:19:55;;;;;;;2.00;1.00;;;5.50;97.80;;;;;;5064675;28;20430;-68
2023/01/16 08:22:21;;;;;;;3.42;1.23;;;5.50;98.10;;;;;;5066933;28;20431;-67
2023/01/16 08:24:48;;;;;;;2.80;1.08;;;5.50;97.80;;;;;;5068728;28;20431;-69
2023/01/16 08:27:15;;;;;;;2.20;0.90;;;5.50;97.60;;;;;;5066491;28;20431;-68
2023/01/16 08:29:42;;;;;;;1.50;0.90;;;5.50;97.80;;;;;;5068900;28;20554;-68
2023/01/16 08:32:09;;;;;;;2.50;1.10;;;5.50;97.30;;;;;;5069477;28;20915;-68
2023/01/16 08:34:36;;;;;;;2.17;0.80;;;5.50;97.30;;;;;;5067685;28;20432;-69
2023/01/16 08:37:04;;;;;;;1.98;0.80;;;5.50;97.20;;;;;;5067180;28;20436;-70
2023/01/16 08:39:31;;;;;;;3.47;1.00;;;5.60;96.70;;;;;;5074050;28;20419;-68
2023/01/16 08:52:59;;;;;;;1.50;0.80;;;5.50;96.40;;;;;;5081418;28;20469;-66
2023/01/16 08:55:26;;;;;;;1.73;0.88;;;5.50;96.60;;;;;;5079373;28;20548;-73
2023/01/16 08:57:53;;;;;;;2.90;1.00;;;5.50;96.90;;;;;;5076140;28;20443;-68
2023/01/16 09:00:20;;;;;;;1.45;0.70;;;5.50;96.60;;;;;;5079223;28;20433;-68
2023/01/16 09:02:47;;;;;;;1.83;0.88;;;5.50;96.90;;;;;;5082019;28;20435;-68
2023/01/16 09:05:14;;;;;;;1.33;0.53;;;5.40;96.70;;;;;;5084503;28;20434;-70
2023/01/16 09:07:41;;;;;;;1.10;0.70;;;5.40;96.80;;;;;;5084756;28;20407;-68
2023/01/16 09:10:12;;;;;;;2.40;0.80;;;5.40;96.90;;;;;;5079345;28;20437;-68
2023/01/16 09:15:24;;;;;;;0.70;0.60;;;5.40;97.40;;;;;;5077202;28;20446;-71
2023/01/16 09:17:50;;;;;;;2.15;0.70;;;5.40;97.00;;;;;;5073926;28;20861;-68
2023/01/16 09:20:18;;;;;;;1.25;0.50;;;5.40;97.50;;;;;;5080272;28;20558;-71
2023/01/16 09:22:45;;;;;;;1.30;0.70;;;5.40;97.00;;;;;;5079215;28;20412;-67
2023/01/16 09:25:13;;;;;;;1.00;0.60;;;5.40;97.10;;;;;;5075400;28;20439;-69
2023/01/16 09:27:40;;;;;;;1.20;0.80;;;5.50;97.40;;;;;;5073254;28;20524;-68
2023/01/16 09:30:08;;;;;;;1.70;0.77;;;5.50;97.20;;;;;;5073479;28;20419;-68
2023/01/16 09:32:35;;;;;;;2.05;0.60;;;5.50;97.10;;;;;;5063857;28;20904;-68
2023/01/16 09:35:02;;;;;;;1.10;0.60;;;5.50;97.30;;;;;;5066607;28;20423;-67
2023/01/16 09:37:29;;;;;;;1.30;0.70;;;5.50;96.80;;;;;;5066389;28;20523;-67
2023/01/16 09:39:55;;;;;;;1.40;0.70;;;5.40;97.00;;;;;;5068135;28;20932;-70
2023/01/16 09:45:29;;;;;;;2.00;0.80;;;5.50;97.30;;;;;;5062903;28;20905;-68
2023/01/16 09:48:00;;;;;;;1.10;0.70;;;5.40;97.40;;;;;;5061084;28;20517;-71
2023/01/16 09:50:32;;;;;;;1.70;0.70;;;5.40;97.60;;;;;;5062428;28;20430;-68
2023/01/16 09:58:36;;;;;;;1.65;0.57;;;5.50;96.70;;;;;;5063972;28;20458;-68
2023/01/16 10:01:04;;;;;;;1.35;0.63;;;5.50;96.80;;;;;;5064021;28;20443;-68
2023/01/16 10:03:31;;;;;;;1.58;0.60;;;5.50;96.60;;;;;;5064167;28;20840;-68
2023/01/16 10:06:07;;;;;;;1.10;0.60;;;5.60;96.80;;;;;;5067607;28;20427;-68
2023/01/16 10:08:38;;;;;;;1.75;0.70;;;5.50;96.30;;;;;;5065372;28;20433;-69
2023/01/16 10:11:14;;;;;;;1.40;0.60;;;5.60;96.40;;;;;;5065202;28;20901;-69
2023/01/16 10:14:02;;;;;;;1.27;0.60;;;5.60;96.30;;;;;;5066338;28;20424;-69
2023/01/16 10:16:42;;;;;;;1.30;0.70;;;5.60;95.70;;;;;;5068124;28;20476;-69
2023/01/16 10:19:20;;;;;;;1.20;0.60;;;5.60;96.10;;;;;;5071558;28;20427;-68
2023/01/16 10:22:02;;;;;;;1.50;0.70;;;5.60;96.00;;;;;;5076878;28;20419;-70
2023/01/16 10:24:49;;;;;;;1.30;0.50;;;5.60;95.70;;;;;;5074483;28;20938;-68
2023/01/16 10:27:22;;;;;;;1.27;0.77;;;5.60;95.70;;;;;;5065073;28;20732;-68
2023/01/16 10:29:54;;;;;;;1.50;0.50;;;5.50;96.00;;;;;;5068261;28;20422;-68
2023/01/16 10:32:27;;;;;;;0.70;0.50;;;5.50;96.00;;;;;;5064839;28;20438;-69
2023/01/16 10:35:03;;;;;;;1.80;0.50;;;5.50;95.90;;;;;;5062441;28;20517;-68
2023/01/16 10:37:30;;;;;;;0.80;0.60;;;5.50;96.00;;;;;;5062813;28;20423;-68
2023/01/16 10:40:01;;;;;;;1.30;0.60;;;5.50;96.00;;;;;;5063285;28;20503;-69
2023/01/16 10:50:54;;;;;;;1.20;0.50;;;5.50;96.10;;;;;;5062295;28;20472;-68
2023/01/16 10:53:20;;;;;;;0.90;0.60;;;5.60;96.00;;;;;;5063300;28;20437;-70
2023/01/16 10:55:51;;;;;;;0.70;0.50;;;5.70;95.70;;;;;;5061423;28;20443;-69
2023/01/16 10:58:26;;;;;;;1.02;0.43;;;5.80;95.10;;;;;;5068018;28;20914;-71
2023/01/16 11:01:00;;;;;;;1.40;0.50;;;5.70;94.90;;;;;;5064029;28;20430;-70
2023/01/16 11:03:34;;;;;;;1.10;0.60;;;5.80;95.10;;;;;;5056764;28;21062;-71
2023/01/16 11:06:11;;;;;;;0.80;0.50;;;5.80;95.20;;;;;;5059296;28;20463;-69
2023/01/16 11:08:38;;;;;;;1.10;0.50;;;5.80;95.10;;;;;;5058671;28;20776;-69
2023/01/16 11:18:27;;;;;;;0.95;0.60;;;5.80;95.20;;;;;;5057557;28;20538;-69
2023/01/16 11:19:26;;;;;;;0.98;0.50;;;5.80;95.60;;;;;;5068383;28;20426;-69
2023/01/16 11:21:56;;;;;;;2.20;0.60;;;6.00;94.90;;;;;;5076808;28;20529;-69
2023/01/16 11:24:29;;;;;;;0.60;0.40;;;6.20;94.20;;;;;;5057613;28;20916;-68
2023/01/16 11:26:59;;;;;;;1.50;0.50;;;6.40;94.00;;;;;;5069821;28;20547;-68
2023/01/16 11:29:30;;;;;;;0.70;0.50;;;6.30;94.10;;;;;;5065394;28;20645;-68
2023/01/16 11:32:00;;;;;;;0.90;0.50;;;6.40;93.80;;;;;;5069990;28;20794;-68
2023/01/16 11:34:28;;;;;;;2.10;0.90;;;6.40;93.90;;;;;;5063253;28;20477;-68
2023/01/16 11:36:57;;;;;;;0.80;0.60;;;6.40;93.50;;;;;;5069393;28;20427;-68
2023/01/16 11:39:28;;;;;;;1.58;0.68;;;6.40;93.20;;;;;;5068267;28;20431;-68
2023/01/16 11:41:58;;;;;;;1.13;0.50;;;6.40;93.30;;;;;;5067778;28;20435;-67
2023/01/16 11:47:27;;;;;;;2.10;0.80;;;6.50;93.10;;;;;;5042411;28;20477;-70
2023/01/16 11:49:55;;;;;;;1.00;0.52;;;6.60;92.70;;;;;;5069105;28;20423;-67
2023/01/16 11:52:27;;;;;;;1.15;0.70;;;6.70;91.90;;;;;;5068923;28;20811;-71
2023/01/16 11:54:55;;;;;;;0.73;0.50;;;6.70;92.10;;;;;;5068163;28;20500;-70
2023/01/16 11:57:33;;;;;;;2.88;1.63;;;6.50;92.60;;;;;;5066028;28;20470;-70
2023/01/16 12:00:24;;;;;;;1.95;1.08;;;6.50;92.80;;;;;;5076413;28;20434;-73
2023/01/16 12:03:19;;;;;;;1.00;0.60;;;6.40;93.80;;;;;;5077158;28;20435;-71
2023/01/16 12:05:57;;;;;;;1.13;0.50;;;6.30;93.70;;;;;;5066364;28;20416;-71
2023/01/16 12:08:54;;;;;;;0.90;0.60;;;6.20;93.90;;;;;;5072231;28;20435;-70
2023/01/16 12:11:31;;;;;;;1.50;0.60;;;6.10;94.10;;;;;;5075882;28;20470;-68
2023/01/16 12:14:21;;;;;;;1.03;0.70;;;6.00;94.30;;;;;;5076906;28;20433;-71
2023/01/16 12:17:00;;;;;;;1.40;0.70;;;6.00;95.00;;;;;;5079076;28;20447;-70
2023/01/16 12:19:54;;;;;;;1.35;0.70;;;6.00;96.80;;;;;;5078608;28;20427;-71
2023/01/16 12:22:29;;;;;;;1.30;0.80;;;5.90;97.60;;;;;;5079148;28;20416;-69
2023/01/16 12:25:04;;;;;;;0.95;0.70;;;5.90;98.40;;;;;;5075223;28;20534;-69
2023/01/16 12:27:42;;;;;;;1.50;0.68;;;5.80;99.10;;;;;;5081816;28;20738;-70
2023/01/16 12:30:21;;;;;;;0.90;0.60;;;5.70;99.00;;;;;;5074926;28;20438;-69
2023/01/16 12:33:07;;;;;;;0.90;0.57;;;5.60;99.00;;;;;;5071372;28;20824;-69
2023/01/16 12:35:46;;;;;;;0.80;0.70;;;5.70;98.60;;;;;;5063049;28;20534;-69
2023/01/16 12:38:17;;;;;;;1.60;0.80;;;5.70;98.60;;;;;;5062951;28;20407;-68
2023/01/16 12:44:18;;;;;;;0.80;0.70;;;5.80;98.30;;;;;;5070618;28;21222;-68
2023/01/16 12:46:53;;;;;;;2.40;0.80;;;5.90;98.20;;;;;;5073216;28;20424;-68
2023/01/16 12:49:31;;;;;;;1.13;0.70;;;5.90;97.90;;;;;;5071886;28;20412;-69
2023/01/16 12:52:15;;;;;;;1.40;0.70;;;5.90;97.60;;;;;;5073548;28;21029;-68
2023/01/16 12:54:55;;;;;;;1.40;0.70;;;5.90;97.90;;;;;;5068887;28;21067;-70
2023/01/16 12:57:52;;;;;;;0.95;0.70;;;5.90;97.30;;;;;;5067089;28;20439;-69
2023/01/16 13:00:23;;;;;;;1.20;0.70;;;5.90;97.40;;;;;;5059216;28;20448;-67
2023/01/16 13:02:56;;;;;;;0.90;0.60;;;5.90;97.50;;;;;;5064460;28;20451;-69
2023/01/16 13:05:26;;;;;;;1.02;0.60;;;5.90;97.60;;;;;;5067743;28;20416;-69
2023/01/16 13:07:58;;;;;;;0.82;0.70;;;5.90;97.60;;;;;;5074742;28;20438;-69
2023/01/16 13:13:24;;;;;;;0.80;0.80;;;5.90;97.20;;;;;;5062866;28;20901;-69
2023/01/16 13:15:58;;;;;;;2.80;1.00;;;6.00;96.90;;;;;;5073753;28;20511;-69
2023/01/16 13:18:30;;;;;;;1.90;0.80;;;6.00;97.20;;;;;;5056785;28;21052;-72
2023/01/16 13:21:01;;;;;;;1.10;0.70;;;6.10;97.00;;;;;;5067065;28;20434;-68
2023/01/16 13:23:33;;;;;;;1.00;0.60;;;6.10;96.40;;;;;;5072788;28;20458;-70
2023/01/16 13:26:02;;;;;;;0.80;0.60;;;6.10;96.80;;;;;;5073909;28;20437;-70
2023/01/16 13:28:42;;;;;;;0.80;0.63;;;6.10;96.50;;;;;;5079708;28;20411;-70
2023/01/16 13:31:18;;;;;;;1.13;0.60;;;6.10;96.70;;;;;;5075127;28;20415;-70
2023/01/16 13:33:49;;;;;;;1.70;0.80;;;6.00;96.90;;;;;;5071929;28;20416;-69
2023/01/16 13:36:36;;;;;;;1.20;0.70;;;6.00;96.80;;;;;;5071258;28;20431;-69
2023/01/16 13:39:30;;;;;;;1.10;0.50;;;5.90;97.20;;;;;;5072450;28;20423;-68
2023/01/16 13:41:58;;;;;;;1.05;0.60;;;5.90;97.50;;;;;;5072152;28;20420;-71
2023/01/16 13:47:18;;;;;;;1.95;0.60;;;5.70;98.10;;;;;;5068481;28;20402;-70
2023/01/16 13:49:50;;;;;;;0.90;0.80;;;5.70;98.60;;;;;;5072144;28;20426;-66
2023/01/16 13:52:20;;;;;;;1.20;0.60;;;5.70;98.70;;;;;;5074692;28;20454;-70
2023/01/16 13:54:54;;;;;;;0.77;0.60;;;5.70;98.80;;;;;;5075372;28;20483;-68
2023/01/16 13:57:23;;;;;;;0.98;0.70;;;5.70;98.80;;;;;;5078483;28;20491;-69
2023/01/16 13:59:52;;;;;;;1.60;0.60;;;5.70;98.80;;;;;;5073296;28;20450;-70
2023/01/16 14:02:27;;;;;;;1.25;0.60;;;5.80;98.90;;;;;;5067671;28;20431;-69
2023/01/16 14:05:24;;;;;;;1.30;0.60;;;5.80;99.10;;;;;;5061726;28;20420;-68
2023/01/16 14:11:05;;;;;;;1.90;0.70;;;5.70;99.90;;;;;;5065077;28;20497;-74
2023/01/16 14:13:34;;;;;;;1.17;0.60;;;5.70;99.90;;;;;;5064863;28;20447;-68
2023/01/16 14:16:35;;;;;;;1.05;0.65;;;5.60;99.90;;;;;;5062433;28;20432;-71
2023/01/16 14:19:03;;;;;;;2.20;0.70;;;5.60;99.90;;;;;;5063762;28;20431;-71
2023/01/16 14:21:43;;;;;;;0.80;0.50;;;5.60;99.90;;;;;;5064238;28;20454;-68
2023/01/16 14:24:15;;;;;;;1.80;0.60;;;5.60;99.90;;;;;;5062989;28;20432;-68